Time;durP1;ratioP1;P1;durP2;ratioP2;P2;SDS_P1;SDS_P2;PMS_P1;PMS_P2;Temp;Humidity;BMP_temperature;BMP_pressure;BME280_temperature;BME280_humidity;BME280_pressure;Samples;Min_cycle;Max_cycle;Signal;HPM_P1;HPM_P2
2022/01/23 00:00:20;;;;;;;56.58;27.60;;;5.50;99.90;;;;;;5133619;27;20295;-44
2022/01/23 00:02:48;;;;;;;48.38;25.85;;;5.50;99.90;;;;;;5133864;27;20195;-45
2022/01/23 00:05:15;;;;;;;53.65;28.45;;;5.50;99.90;;;;;;5133603;27;20164;-44
2022/01/23 00:07:42;;;;;;;50.28;26.33;;;5.50;99.90;;;;;;5133289;27;20187;-45
2022/01/23 00:10:10;;;;;;;56.00;29.38;;;5.50;99.90;;;;;;5133774;27;20176;-44
2022/01/23 00:12:44;;;;;;;54.13;29.50;;;5.50;99.90;;;;;;5133153;27;20258;-46
2022/01/23 00:17:54;;;;;;;56.35;28.73;;;5.50;99.90;;;;;;5133589;27;20233;-47
2022/01/23 00:20:19;;;;;;;56.40;29.73;;;5.50;99.90;;;;;;5133185;27;20606;-44
2022/01/23 00:22:49;;;;;;;59.35;31.80;;;5.60;99.90;;;;;;5133139;27;20179;-45
2022/01/23 00:30:45;;;;;;;60.47;30.15;;;5.50;99.90;;;;;;5134269;27;20171;-46
2022/01/23 00:33:12;;;;;;;58.35;32.17;;;5.60;99.90;;;;;;5134264;27;20615;-45
2022/01/23 00:35:39;;;;;;;53.78;30.33;;;5.50;99.90;;;;;;5134275;27;20167;-46
2022/01/23 00:38:08;;;;;;;57.78;31.80;;;5.50;99.90;;;;;;5134495;27;20543;-45
2022/01/23 00:40:35;;;;;;;59.95;32.92;;;5.50;99.90;;;;;;5134129;27;20659;-45
2022/01/23 00:43:01;;;;;;;55.20;29.75;;;5.50;99.90;;;;;;5134352;27;20242;-46
2022/01/23 00:45:31;;;;;;;62.80;31.13;;;5.60;99.90;;;;;;5134446;27;20164;-46
2022/01/23 00:48:04;;;;;;;63.75;31.50;;;5.50;99.90;;;;;;5134605;27;20168;-45
2022/01/23 00:50:35;;;;;;;55.63;29.15;;;5.60;99.90;;;;;;5134151;27;20179;-47
2022/01/23 00:53:02;;;;;;;62.05;31.42;;;5.50;99.90;;;;;;5133941;27;20160;-44
2022/01/23 00:55:28;;;;;;;59.03;29.08;;;5.50;99.90;;;;;;5134185;27;20167;-45
2022/01/23 00:57:53;;;;;;;49.35;24.92;;;5.50;99.90;;;;;;5133872;27;20164;-48
2022/01/23 01:00:20;;;;;;;53.60;30.65;;;5.50;99.90;;;;;;5133957;27;20214;-47
2022/01/23 01:02:46;;;;;;;53.22;27.83;;;5.50;99.90;;;;;;5133797;27;20167;-49
2022/01/23 01:05:12;;;;;;;61.92;31.98;;;5.40;99.90;;;;;;5133644;27;20532;-48
2022/01/23 01:07:38;;;;;;;57.35;29.17;;;5.40;99.90;;;;;;5133669;27;20156;-45
2022/01/23 01:10:09;;;;;;;54.65;26.40;;;5.50;99.90;;;;;;5115227;27;20160;-48
2022/01/23 01:12:42;;;;;;;55.53;29.48;;;5.40;99.90;;;;;;5133386;27;20581;-48
2022/01/23 01:31:24;;;;;;;61.60;29.75;;;5.40;99.90;;;;;;5133332;27;20171;-46
2022/01/23 01:33:59;;;;;;;62.92;32.17;;;5.40;99.90;;;;;;5133480;27;20542;-50
2022/01/23 01:36:35;;;;;;;64.28;33.28;;;5.40;99.90;;;;;;5133486;27;20163;-49
2022/01/23 01:39:02;;;;;;;67.05;33.58;;;5.50;99.90;;;;;;5133428;27;20228;-49
2022/01/23 01:41:28;;;;;;;64.93;32.83;;;5.50;99.90;;;;;;5133585;27;20663;-50
2022/01/23 01:43:54;;;;;;;67.50;32.22;;;5.50;99.90;;;;;;5133197;27;20160;-47
2022/01/23 01:46:20;;;;;;;59.42;31.65;;;5.50;99.90;;;;;;5133006;27;20199;-49
2022/01/23 01:48:46;;;;;;;62.97;32.10;;;5.40;99.90;;;;;;5133069;27;20247;-45
2022/01/23 01:51:17;;;;;;;64.38;33.30;;;5.40;99.90;;;;;;5133078;27;20184;-49
2022/01/23 01:53:48;;;;;;;58.47;30.40;;;5.50;99.90;;;;;;5133311;27;20178;-48
2022/01/23 01:56:14;;;;;;;56.05;29.98;;;5.40;99.90;;;;;;5133235;27;20172;-49
2022/01/23 02:02:47;;;;;;;69.60;34.80;;;5.40;99.90;;;;;;5133334;27;20670;-46
2022/01/23 02:09:33;;;;;;;62.90;32.42;;;5.40;99.90;;;;;;5137447;27;20792;-46
2022/01/23 03:00:14;;;;;;;65.63;32.88;;;5.40;99.90;;;;;;5136367;27;20211;-46
2022/01/23 03:02:51;;;;;;;62.45;31.48;;;5.50;99.90;;;;;;5136933;27;20315;-45
2022/01/23 03:06:10;;;;;;;69.55;33.40;;;5.50;99.90;;;;;;5117759;27;20172;-46
2022/01/23 03:08:30;;;;;;;60.75;30.45;;;5.40;99.90;;;;;;5132687;27;20228;-46
2022/01/23 03:11:03;;;;;;;58.78;32.60;;;5.50;99.90;;;;;;5136408;27;20171;-47
2022/01/23 03:24:38;;;;;;;65.20;31.40;;;5.40;99.90;;;;;;5136008;27;20167;-45
2022/01/23 03:30:14;;;;;;;60.80;32.00;;;5.40;99.90;;;;;;5135600;27;20680;-48
2022/01/23 03:32:44;;;;;;;65.07;32.75;;;5.40;99.90;;;;;;5135712;27;20178;-47
2022/01/23 03:35:09;;;;;;;60.30;31.55;;;5.40;99.90;;;;;;5135741;27;20189;-48
2022/01/23 03:37:35;;;;;;;62.33;31.27;;;5.40;99.90;;;;;;5135417;27;20168;-45
2022/01/23 03:40:01;;;;;;;64.78;32.55;;;5.40;99.90;;;;;;5135665;27;20621;-45
2022/01/23 03:42:28;;;;;;;62.80;30.83;;;5.40;99.90;;;;;;5135622;27;20217;-46
2022/01/23 03:47:39;;;;;;;65.45;33.08;;;5.50;99.90;;;;;;5135553;27;20168;-47
2022/01/23 03:50:11;;;;;;;60.70;31.33;;;5.40;99.90;;;;;;5135212;27;20168;-46
2022/01/23 03:52:38;;;;;;;63.95;31.02;;;5.40;99.90;;;;;;5135228;27;20160;-46
2022/01/23 03:55:06;;;;;;;67.28;33.17;;;5.40;99.90;;;;;;5135358;27;20198;-45
2022/01/23 03:57:31;;;;;;;65.68;31.98;;;5.40;99.90;;;;;;5135366;27;20176;-45
2022/01/23 03:59:57;;;;;;;63.22;32.88;;;5.40;99.90;;;;;;5135258;27;20206;-46
2022/01/23 04:02:22;;;;;;;64.30;31.65;;;5.40;99.90;;;;;;5135078;27;20168;-46
2022/01/23 04:04:48;;;;;;;60.53;31.23;;;5.40;99.90;;;;;;5134940;27;20164;-45
2022/01/23 04:07:22;;;;;;;62.47;32.58;;;5.40;99.90;;;;;;5135119;27;20172;-45
2022/01/23 04:09:49;;;;;;;62.63;31.48;;;5.40;99.90;;;;;;5134871;27;20163;-45
2022/01/23 04:15:12;;;;;;;65.05;33.78;;;5.30;99.90;;;;;;5135354;27;20224;-46
2022/01/23 04:20:35;;;;;;;58.53;32.63;;;5.40;99.90;;;;;;5134667;27;20278;-45
2022/01/23 04:34:10;;;;;;;63.25;29.98;;;5.40;99.90;;;;;;5134652;27;20171;-46
2022/01/23 05:01:06;;;;;;;55.80;30.20;;;5.50;99.90;;;;;;5133811;27;20249;-45
2022/01/23 05:06:07;;;;;;;52.33;29.42;;;5.50;99.90;;;;;;5134058;27;20184;-45
2022/01/23 05:08:35;;;;;;;59.90;31.27;;;5.50;99.90;;;;;;5133861;27;20190;-46
2022/01/23 05:11:02;;;;;;;57.97;31.23;;;5.50;99.90;;;;;;5115622;27;20584;-44
2022/01/23 05:13:29;;;;;;;56.63;30.17;;;5.50;99.90;;;;;;5133939;27;20164;-44
2022/01/23 05:15:55;;;;;;;57.72;31.25;;;5.50;99.90;;;;;;5133868;27;20171;-44
2022/01/23 05:18:21;;;;;;;55.38;30.42;;;5.50;99.90;;;;;;5133577;27;20595;-45
2022/01/23 05:20:49;;;;;;;55.75;29.13;;;5.60;99.90;;;;;;5133350;27;20222;-44
2022/01/23 05:23:15;;;;;;;54.65;29.52;;;5.60;99.90;;;;;;5133376;27;20252;-45
2022/01/23 05:25:41;;;;;;;50.38;28.27;;;5.60;99.90;;;;;;5133611;27;20635;-45
2022/01/23 05:28:07;;;;;;;46.88;25.45;;;5.60;99.90;;;;;;5133585;27;20168;-45
2022/01/23 05:30:34;;;;;;;56.40;27.13;;;5.50;99.90;;;;;;5133470;27;20620;-45
2022/01/23 05:33:00;;;;;;;58.50;29.00;;;5.50;99.90;;;;;;5133640;27;20156;-44
2022/01/23 05:35:28;;;;;;;53.25;28.90;;;5.50;99.90;;;;;;5133766;27;20168;-44
2022/01/23 05:37:54;;;;;;;57.28;29.48;;;5.50;99.90;;;;;;5133487;27;20207;-44
2022/01/23 05:40:21;;;;;;;57.83;30.40;;;5.60;99.90;;;;;;5133110;27;20239;-44
2022/01/23 05:42:47;;;;;;;56.60;29.50;;;5.60;99.90;;;;;;5133442;27;20273;-44
2022/01/23 05:45:13;;;;;;;56.92;28.77;;;5.60;99.90;;;;;;5133436;27;20662;-44
2022/01/23 05:47:38;;;;;;;55.05;28.63;;;5.50;99.90;;;;;;5133110;27;20627;-47
2022/01/23 05:50:05;;;;;;;55.70;29.90;;;5.50;99.90;;;;;;5133122;27;20235;-45
2022/01/23 05:52:31;;;;;;;54.38;27.38;;;5.60;99.90;;;;;;5133937;27;20224;-46
2022/01/23 05:54:58;;;;;;;49.10;27.38;;;5.60;99.90;;;;;;5133562;27;20167;-44
2022/01/23 05:57:23;;;;;;;50.60;26.58;;;5.50;99.90;;;;;;5133032;27;20604;-44
2022/01/23 05:59:49;;;;;;;48.83;26.85;;;5.60;99.90;;;;;;5132916;27;20188;-45
2022/01/23 06:02:15;;;;;;;57.53;27.60;;;5.60;99.90;;;;;;5133192;27;20180;-44
2022/01/23 06:04:40;;;;;;;55.70;27.10;;;5.50;99.90;;;;;;5132950;27;20167;-45
2022/01/23 06:07:06;;;;;;;55.33;27.83;;;5.50;99.90;;;;;;5132965;27;20297;-44
2022/01/23 06:09:31;;;;;;;59.35;28.65;;;5.40;99.90;;;;;;5132877;27;20529;-44
2022/01/23 06:11:57;;;;;;;59.30;30.10;;;5.50;99.90;;;;;;5133098;27;20223;-44
2022/01/23 06:14:23;;;;;;;58.75;30.33;;;5.40;99.90;;;;;;5132863;27;20164;-45
2022/01/23 06:16:48;;;;;;;57.25;29.17;;;5.50;99.90;;;;;;5132849;27;20196;-45
2022/01/23 06:19:14;;;;;;;59.13;30.35;;;5.40;99.90;;;;;;5132857;27;20164;-46
2022/01/23 06:21:40;;;;;;;57.00;27.77;;;5.40;99.90;;;;;;5132950;27;20256;-45
2022/01/23 06:24:21;;;;;;;61.58;29.23;;;5.40;99.90;;;;;;5133012;27;20666;-46
2022/01/23 06:26:50;;;;;;;57.15;29.13;;;5.40;99.90;;;;;;5132757;27;20160;-44
2022/01/23 06:29:17;;;;;;;57.75;31.20;;;5.40;99.90;;;;;;5132740;28;20160;-45
2022/01/23 06:31:46;;;;;;;59.33;28.42;;;5.50;99.90;;;;;;5132736;27;20176;-45
2022/01/23 06:34:11;;;;;;;51.63;26.85;;;5.40;99.90;;;;;;5133028;27;20201;-47
2022/01/23 06:36:38;;;;;;;55.30;28.40;;;5.50;99.90;;;;;;5132710;27;20156;-47
2022/01/23 06:39:11;;;;;;;53.38;29.27;;;5.50;99.90;;;;;;5132649;27;20530;-48
2022/01/23 06:41:37;;;;;;;52.13;27.08;;;5.50;99.90;;;;;;5132686;27;20666;-46
2022/01/23 06:44:04;;;;;;;51.03;27.38;;;5.50;99.90;;;;;;5132848;27;20175;-45
2022/01/23 06:46:31;;;;;;;50.70;27.92;;;5.50;99.90;;;;;;5132838;27;20167;-47
2022/01/23 06:48:57;;;;;;;69.75;29.02;;;5.50;99.90;;;;;;5135800;27;20178;-48
2022/01/23 06:51:22;;;;;;;55.10;29.73;;;5.40;99.90;;;;;;5136429;27;20176;-48
2022/01/23 06:53:48;;;;;;;51.42;29.17;;;5.50;99.90;;;;;;5136418;27;20164;-48
2022/01/23 06:56:14;;;;;;;52.60;28.38;;;5.50;99.90;;;;;;5136292;27;20160;-50
2022/01/23 06:58:40;;;;;;;62.88;29.65;;;5.50;99.90;;;;;;5136356;27;20164;-47
2022/01/23 07:01:07;;;;;;;59.10;29.17;;;5.50;99.90;;;;;;5136096;27;20211;-51
2022/01/23 07:03:34;;;;;;;52.25;28.48;;;5.50;99.90;;;;;;5136441;27;20243;-44
2022/01/23 07:06:00;;;;;;;58.88;28.83;;;5.50;99.90;;;;;;5136376;27;20156;-45
2022/01/23 07:08:25;;;;;;;56.75;28.45;;;6.70;99.90;;;;;;5136360;27;20647;-44
2022/01/23 07:10:51;;;;;;;52.67;28.67;;;5.50;99.90;;;;;;5135805;27;20228;-44
2022/01/23 07:13:16;;;;;;;53.33;29.15;;;5.40;99.90;;;;;;5135980;27;20259;-44
2022/01/23 07:15:42;;;;;;;50.78;29.45;;;5.50;99.90;;;;;;5135914;27;20179;-44
2022/01/23 07:18:07;;;;;;;56.25;29.00;;;5.50;99.90;;;;;;5135923;27;20164;-46
2022/01/23 07:20:33;;;;;;;57.45;29.15;;;5.50;99.90;;;;;;5135719;27;20212;-45
2022/01/23 07:22:58;;;;;;;55.17;31.17;;;5.50;99.90;;;;;;5135995;27;20218;-45
2022/01/23 07:25:24;;;;;;;60.25;29.10;;;5.50;99.90;;;;;;5135822;27;20192;-45
2022/01/23 07:27:56;;;;;;;59.53;30.73;;;5.40;99.90;;;;;;5135921;27;20602;-44
2022/01/23 07:30:35;;;;;;;54.88;30.60;;;5.40;99.90;;;;;;5135612;27;20179;-48
2022/01/23 07:33:01;;;;;;;54.97;29.63;;;5.50;99.90;;;;;;5135548;27;20316;-44
2022/01/23 07:35:26;;;;;;;56.60;30.70;;;5.50;99.90;;;;;;5135860;27;20171;-44
2022/01/23 07:37:52;;;;;;;70.75;30.95;;;5.50;99.90;;;;;;5135730;27;20636;-45
2022/01/23 07:40:19;;;;;;;62.85;30.17;;;5.50;99.90;;;;;;5135290;27;20202;-44
2022/01/23 07:42:45;;;;;;;60.17;32.83;;;5.40;99.90;;;;;;5135649;27;20180;-45
2022/01/23 07:45:11;;;;;;;58.72;31.02;;;5.50;99.90;;;;;;5135557;27;20213;-45
2022/01/23 07:47:36;;;;;;;61.40;34.15;;;5.50;99.90;;;;;;5135224;27;20220;-46
2022/01/23 07:50:03;;;;;;;62.70;29.92;;;5.50;99.90;;;;;;5135545;27;20176;-43
2022/01/23 07:52:30;;;;;;;58.70;31.63;;;5.60;99.90;;;;;;5135690;27;20494;-44
2022/01/23 07:54:56;;;;;;;60.35;29.08;;;5.60;99.90;;;;;;5135852;27;20164;-45
2022/01/23 07:57:22;;;;;;;59.63;30.70;;;5.60;99.90;;;;;;5135112;27;20202;-45
2022/01/23 07:59:48;;;;;;;57.88;29.73;;;5.50;99.90;;;;;;5133763;27;20195;-44
2022/01/23 08:02:13;;;;;;;62.33;31.85;;;5.50;99.90;;;;;;5134948;27;20175;-45
2022/01/23 08:04:40;;;;;;;57.15;31.38;;;5.60;99.90;;;;;;5135008;27;20164;-45
2022/01/23 08:07:21;;;;;;;60.67;30.67;;;5.60;99.90;;;;;;5135137;27;20175;-44
2022/01/23 08:09:46;;;;;;;58.92;31.67;;;5.60;99.90;;;;;;5135072;27;20197;-45
2022/01/23 08:12:12;;;;;;;59.75;32.10;;;5.60;99.90;;;;;;5134678;27;20211;-45
2022/01/23 08:14:37;;;;;;;62.70;30.73;;;5.70;99.90;;;;;;5134743;27;20172;-44
2022/01/23 08:17:03;;;;;;;58.17;29.38;;;5.70;99.90;;;;;;5134763;27;20156;-45
2022/01/23 08:19:28;;;;;;;58.45;30.70;;;5.70;99.90;;;;;;5135172;27;20528;-45
2022/01/23 08:21:55;;;;;;;54.08;30.52;;;5.70;99.90;;;;;;5134341;27;20229;-45
2022/01/23 08:24:20;;;;;;;63.92;30.48;;;5.70;99.90;;;;;;5134389;27;20164;-46
2022/01/23 08:26:46;;;;;;;57.38;31.05;;;5.80;99.90;;;;;;5134243;27;20251;-45
2022/01/23 08:29:12;;;;;;;54.13;28.92;;;5.80;99.90;;;;;;5134222;27;20164;-45
2022/01/23 08:31:37;;;;;;;55.58;30.25;;;5.80;99.90;;;;;;5134470;27;20175;-44
2022/01/23 08:34:03;;;;;;;55.10;29.85;;;5.80;99.90;;;;;;5134366;27;20609;-49
2022/01/23 08:36:31;;;;;;;57.28;30.08;;;5.80;99.90;;;;;;5134811;27;20619;-45
2022/01/23 08:38:58;;;;;;;56.67;31.52;;;5.70;99.90;;;;;;5134823;27;20172;-44
2022/01/23 08:43:50;;;;;;;62.22;31.77;;;5.80;99.90;;;;;;5134393;27;20156;-45
2022/01/23 08:46:16;;;;;;;55.15;30.92;;;5.80;99.90;;;;;;5115703;27;20172;-45
2022/01/23 08:48:43;;;;;;;60.70;29.85;;;5.80;99.90;;;;;;5134261;27;20175;-44
2022/01/23 08:51:10;;;;;;;57.83;30.73;;;5.70;99.90;;;;;;5134264;27;20175;-44
2022/01/23 08:53:36;;;;;;;58.88;29.90;;;5.70;99.90;;;;;;5133432;27;20623;-44
2022/01/23 08:56:02;;;;;;;58.92;30.30;;;5.70;99.90;;;;;;5133968;27;20229;-44
2022/01/23 08:58:28;;;;;;;57.17;30.50;;;5.80;99.90;;;;;;5134008;27;20156;-44
2022/01/23 09:00:53;;;;;;;57.45;31.65;;;5.70;99.90;;;;;;5133679;27;20261;-44
2022/01/23 09:03:19;;;;;;;63.80;35.67;;;5.80;99.90;;;;;;5133533;27;20164;-44
2022/01/23 09:05:44;;;;;;;54.42;28.80;;;5.80;99.90;;;;;;5133413;27;20168;-44
2022/01/23 09:08:10;;;;;;;56.95;32.15;;;5.80;99.90;;;;;;5133655;27;20163;-44
2022/01/23 09:10:52;;;;;;;56.10;29.48;;;5.80;99.90;;;;;;5133434;27;20175;-46
2022/01/23 09:13:39;;;;;;;53.75;29.67;;;5.80;99.90;;;;;;5133690;27;20184;-44
2022/01/23 09:16:06;;;;;;;57.40;30.77;;;5.80;99.90;;;;;;5133211;27;20224;-45
2022/01/23 09:18:33;;;;;;;58.10;32.33;;;5.90;99.90;;;;;;5133445;27;20239;-44
2022/01/23 09:20:59;;;;;;;56.60;31.85;;;5.90;99.90;;;;;;5133150;27;20203;-45
2022/01/23 09:23:25;;;;;;;58.30;32.45;;;6.00;99.90;;;;;;5133001;27;20239;-45
2022/01/23 09:25:51;;;;;;;81.90;45.28;;;6.00;99.90;;;;;;5132688;27;20251;-45
2022/01/23 09:28:19;;;;;;;58.97;30.05;;;6.00;99.90;;;;;;5133503;27;20229;-44
2022/01/23 09:30:49;;;;;;;52.72;30.25;;;6.10;99.90;;;;;;5133071;27;20168;-45
2022/01/23 09:33:15;;;;;;;54.00;30.05;;;6.10;99.90;;;;;;5133099;27;20167;-44
2022/01/23 09:35:40;;;;;;;58.08;32.10;;;6.10;99.90;;;;;;5133148;27;20502;-44
2022/01/23 09:38:06;;;;;;;72.78;34.55;;;6.10;99.90;;;;;;5132928;27;20200;-44
2022/01/23 09:40:32;;;;;;;66.60;33.78;;;6.10;99.90;;;;;;5131068;27;20211;-45
2022/01/23 09:43:04;;;;;;;52.47;30.10;;;6.10;99.90;;;;;;5132106;27;20179;-46
2022/01/23 09:45:31;;;;;;;51.08;28.48;;;6.20;99.90;;;;;;5132045;27;20172;-47
2022/01/23 09:48:01;;;;;;;48.58;28.27;;;6.10;99.90;;;;;;5132332;27;20195;-45
2022/01/23 09:50:28;;;;;;;49.92;29.42;;;6.10;99.90;;;;;;5132348;27;20168;-46
2022/01/23 09:52:56;;;;;;;51.72;28.23;;;6.20;99.90;;;;;;5131748;27;20171;-48
2022/01/23 09:55:23;;;;;;;54.38;27.90;;;6.20;99.90;;;;;;5131720;27;20626;-47
2022/01/23 09:57:49;;;;;;;50.65;28.33;;;6.20;99.90;;;;;;5131971;27;20164;-47
2022/01/23 10:00:21;;;;;;;49.88;27.08;;;6.20;99.90;;;;;;5131474;27;20549;-49
2022/01/23 10:02:47;;;;;;;52.55;28.23;;;6.20;99.90;;;;;;5131600;27;20174;-49
2022/01/23 10:05:13;;;;;;;49.53;27.08;;;6.20;99.90;;;;;;5131545;27;20295;-50
2022/01/23 10:07:41;;;;;;;50.53;28.33;;;6.10;99.90;;;;;;5131514;27;20171;-51
2022/01/23 10:10:18;;;;;;;51.05;27.63;;;6.30;99.90;;;;;;5131471;27;20182;-51
2022/01/23 10:12:48;;;;;;;58.90;29.70;;;6.30;99.90;;;;;;5131185;27;20245;-47
2022/01/23 10:15:14;;;;;;;48.00;27.85;;;6.30;99.90;;;;;;5131614;27;20192;-48
2022/01/23 10:17:40;;;;;;;48.75;28.55;;;6.40;99.90;;;;;;5131380;27;20202;-48
2022/01/23 10:20:07;;;;;;;52.13;28.20;;;6.40;99.90;;;;;;5131428;27;20210;-50
2022/01/23 10:22:36;;;;;;;49.72;27.05;;;6.40;99.90;;;;;;5132507;27;20255;-52
2022/01/23 10:25:10;;;;;;;61.35;29.98;;;6.40;99.90;;;;;;5116956;27;20163;-41
2022/01/23 10:28:07;;;;;;;49.53;27.33;;;6.50;99.90;;;;;;5135451;27;20167;-43
2022/01/23 10:30:44;;;;;;;46.42;28.13;;;6.60;99.90;;;;;;5135461;27;20540;-43
2022/01/23 10:33:26;;;;;;;53.05;27.60;;;6.60;99.90;;;;;;5117640;27;20172;-52
2022/01/23 10:36:18;;;;;;;44.58;26.60;;;6.60;99.90;;;;;;5135729;27;20160;-50
2022/01/23 10:39:01;;;;;;;44.35;25.77;;;6.60;99.90;;;;;;5135315;27;20172;-50
2022/01/23 10:41:48;;;;;;;48.88;25.85;;;6.60;99.90;;;;;;5135754;27;20242;-51
2022/01/23 10:49:56;;;;;;;45.92;25.90;;;6.70;99.90;;;;;;5135206;27;20163;-44
2022/01/23 10:52:29;;;;;;;51.35;25.30;;;6.70;99.90;;;;;;5134982;27;20171;-45
2022/01/23 10:54:55;;;;;;;46.80;25.45;;;6.80;99.90;;;;;;5135076;27;20535;-48
2022/01/23 10:57:21;;;;;;;47.83;24.83;;;6.80;99.90;;;;;;5135047;27;20172;-47
2022/01/23 10:59:51;;;;;;;45.13;24.92;;;6.80;99.90;;;;;;5135257;27;20168;-44
2022/01/23 11:02:23;;;;;;;50.45;25.98;;;6.90;99.90;;;;;;5135277;27;20176;-50
2022/01/23 11:04:55;;;;;;;44.85;25.63;;;6.90;99.90;;;;;;5134920;27;20188;-49
2022/01/23 11:07:21;;;;;;;46.67;24.90;;;6.90;99.90;;;;;;5134898;27;20195;-51
2022/01/23 11:09:47;;;;;;;45.30;25.70;;;6.90;99.90;;;;;;5134848;27;20179;-51
2022/01/23 11:17:59;;;;;;;40.53;23.05;;;6.80;99.90;;;;;;5134691;27;20170;-51
2022/01/23 11:20:42;;;;;;;40.15;23.27;;;6.90;99.90;;;;;;5134646;27;20203;-48
2022/01/23 11:23:22;;;;;;;41.35;23.48;;;6.90;99.90;;;;;;5134806;27;20263;-52
2022/01/23 11:25:57;;;;;;;38.47;23.00;;;6.90;99.90;;;;;;5134729;27;20168;-48
2022/01/23 11:28:43;;;;;;;42.90;23.50;;;6.90;99.90;;;;;;5134530;27;20163;-48
2022/01/23 11:31:17;;;;;;;45.30;23.95;;;7.00;99.90;;;;;;5134366;27;20179;-48
2022/01/23 11:33:42;;;;;;;39.92;24.08;;;7.00;99.90;;;;;;5115630;27;20172;-49
2022/01/23 11:36:08;;;;;;;47.25;27.42;;;7.10;99.90;;;;;;5134290;27;20193;-52
2022/01/23 11:38:34;;;;;;;42.78;24.85;;;7.10;99.90;;;;;;5134600;27;20168;-48
2022/01/23 11:50:42;;;;;;;46.92;25.45;;;7.10;99.90;;;;;;5134453;27;20239;-48
2022/01/23 11:55:32;;;;;;;42.17;22.60;;;7.30;99.90;;;;;;5113333;28;20271;-54
2022/01/23 11:57:58;;;;;;;40.75;23.83;;;7.20;99.90;;;;;;5113566;28;20528;-55
2022/01/23 12:00:27;;;;;;;39.97;23.77;;;5.90;99.90;;;;;;5113377;28;20204;-44
2022/01/23 12:03:13;;;;;;;40.00;22.80;;;7.10;99.90;;;;;;5122900;27;20221;-45
2022/01/23 12:05:43;;;;;;;41.67;24.63;;;7.20;99.90;;;;;;5134253;27;20167;-56
2022/01/23 12:08:17;;;;;;;39.63;22.35;;;7.30;99.90;;;;;;5134546;27;20168;-54
2022/01/23 12:17:21;;;;;;;39.65;23.38;;;7.20;99.90;;;;;;5078314;27;20175;-57
2022/01/23 12:20:00;;;;;;;42.63;22.27;;;7.20;99.90;;;;;;5031426;28;20229;-54
2022/01/23 12:22:32;;;;;;;42.33;22.23;;;7.20;99.90;;;;;;5123737;27;20706;-55
2022/01/23 12:25:16;;;;;;;37.55;21.35;;;7.20;99.90;;;;;;5135096;27;20167;-54
2022/01/23 12:27:42;;;;;;;31.80;20.00;;;7.20;99.90;;;;;;5134771;27;20163;-53
2022/01/23 12:30:22;;;;;;;37.80;21.25;;;7.30;99.90;;;;;;5134481;27;20678;-51
2022/01/23 12:33:19;;;;;;;37.40;20.50;;;7.30;99.90;;;;;;5134448;27;20726;-57
2022/01/23 12:35:49;;;;;;;38.70;20.65;;;7.30;99.90;;;;;;5134663;27;20168;-53
2022/01/23 12:38:15;;;;;;;29.92;17.95;;;7.20;99.90;;;;;;5134232;27;20564;-54
2022/01/23 12:40:50;;;;;;;37.55;19.90;;;7.20;99.90;;;;;;5134069;27;20199;-56
2022/01/23 12:43:25;;;;;;;32.78;19.13;;;7.20;99.90;;;;;;5134274;27;20690;-55
2022/01/23 12:45:52;;;;;;;42.22;20.27;;;7.20;99.90;;;;;;5133573;27;20171;-53
2022/01/23 12:48:28;;;;;;;35.50;20.65;;;7.20;99.90;;;;;;5115704;27;20167;-50
2022/01/23 12:51:05;;;;;;;34.08;20.65;;;7.30;99.90;;;;;;5134279;27;20167;-50
2022/01/23 12:53:57;;;;;;;38.00;20.90;;;7.30;99.90;;;;;;5134262;27;20216;-52
2022/01/23 12:56:41;;;;;;;39.80;22.33;;;7.30;99.90;;;;;;5132932;27;20180;-55
2022/01/23 12:59:10;;;;;;;34.88;21.08;;;7.30;99.90;;;;;;5133979;27;20200;-51
2022/01/23 13:01:38;;;;;;;31.50;19.17;;;7.30;99.90;;;;;;5133783;27;20208;-51
2022/01/23 13:04:06;;;;;;;36.08;20.45;;;7.30;99.90;;;;;;5133759;27;20527;-52
2022/01/23 13:06:48;;;;;;;37.42;19.48;;;7.30;99.90;;;;;;5133500;27;20221;-49
2022/01/23 13:09:28;;;;;;;36.47;21.17;;;7.20;99.90;;;;;;5133710;27;20212;-52
2022/01/23 13:14:44;;;;;;;39.33;20.23;;;7.20;99.90;;;;;;5133661;27;20180;-54
2022/01/23 13:17:34;;;;;;;34.55;21.15;;;7.20;99.90;;;;;;5133394;27;20247;-52
2022/01/23 13:30:36;;;;;;;40.60;22.73;;;7.30;99.90;;;;;;5133224;27;20180;-52
2022/01/23 13:33:09;;;;;;;79.03;42.30;;;7.30;99.90;;;;;;5132871;27;20168;-52
2022/01/23 13:35:41;;;;;;;49.00;26.75;;;7.20;99.90;;;;;;5132546;27;20208;-49
2022/01/23 13:38:12;;;;;;;57.30;29.98;;;7.20;99.90;;;;;;5132987;27;20240;-50
2022/01/23 13:40:41;;;;;;;77.35;39.42;;;7.20;99.90;;;;;;5132304;27;20666;-48
2022/01/23 13:51:39;;;;;;;45.50;28.05;;;7.20;99.90;;;;;;5132897;27;20179;-48
2022/01/23 13:59:49;;;;;;;42.50;24.15;;;7.30;99.90;;;;;;5132728;27;20225;-49
2022/01/23 14:02:27;;;;;;;44.03;24.60;;;7.20;99.90;;;;;;5132456;28;20669;-49
2022/01/23 14:05:08;;;;;;;45.85;24.58;;;7.20;99.90;;;;;;5132672;28;20238;-49
2022/01/23 14:07:35;;;;;;;45.38;24.15;;;7.20;99.90;;;;;;5132672;28;20261;-50
2022/01/23 14:10:17;;;;;;;40.90;22.77;;;7.10;99.90;;;;;;5132623;28;20551;-58
2022/01/23 14:12:44;;;;;;;37.67;21.80;;;7.10;99.90;;;;;;5132570;28;20224;-49
2022/01/23 14:15:21;;;;;;;37.75;22.92;;;7.10;99.90;;;;;;5132823;28;20557;-49
2022/01/23 14:18:00;;;;;;;56.22;32.45;;;7.00;99.90;;;;;;5132749;28;20172;-48
2022/01/23 14:20:26;;;;;;;60.42;36.08;;;7.00;99.90;;;;;;5133035;28;20199;-49
2022/01/23 14:22:53;;;;;;;42.65;26.45;;;7.10;99.90;;;;;;5132354;28;20662;-58
2022/01/23 14:25:31;;;;;;;47.80;28.67;;;7.00;99.90;;;;;;5132758;28;20172;-49
2022/01/23 14:28:12;;;;;;;42.25;25.88;;;7.00;99.90;;;;;;5132780;28;20175;-50
2022/01/23 14:30:44;;;;;;;42.85;24.98;;;7.00;99.90;;;;;;5132662;28;20175;-51
2022/01/23 14:33:31;;;;;;;41.33;24.83;;;7.10;99.90;;;;;;5132704;28;20654;-47
2022/01/23 14:35:57;;;;;;;48.22;27.23;;;7.10;99.90;;;;;;5131755;28;20176;-48
2022/01/23 14:38:27;;;;;;;42.90;25.92;;;7.10;99.90;;;;;;5132299;28;20164;-50
2022/01/23 14:41:01;;;;;;;37.70;22.70;;;7.10;99.90;;;;;;5132200;28;20252;-49
2022/01/23 14:43:39;;;;;;;38.83;23.75;;;7.10;99.90;;;;;;5132671;28;20175;-48
2022/01/23 14:46:06;;;;;;;37.83;24.13;;;7.10;99.90;;;;;;5132164;28;20707;-52
2022/01/23 14:48:38;;;;;;;32.25;21.50;;;7.10;99.90;;;;;;5132435;28;20532;-49
2022/01/23 14:51:05;;;;;;;38.25;22.15;;;7.20;99.90;;;;;;5132543;28;20175;-51
2022/01/23 14:53:34;;;;;;;39.28;24.33;;;7.10;99.90;;;;;;5132543;28;20171;-58
2022/01/23 14:56:02;;;;;;;33.60;19.80;;;7.10;99.90;;;;;;5132406;28;20182;-54
2022/01/23 14:58:31;;;;;;;37.85;22.15;;;7.10;99.90;;;;;;5132149;28;20243;-53
2022/01/23 15:00:57;;;;;;;37.72;22.23;;;7.20;99.90;;;;;;5132413;28;20674;-54
2022/01/23 15:03:25;;;;;;;30.67;18.83;;;7.10;99.90;;;;;;5132131;28;20171;-53
2022/01/23 15:05:51;;;;;;;31.83;19.50;;;7.10;99.90;;;;;;5131604;28;20568;-53
2022/01/23 15:08:20;;;;;;;33.45;19.75;;;7.10;99.90;;;;;;5132766;27;20176;-53
2022/01/23 15:10:48;;;;;;;38.22;22.73;;;7.10;99.90;;;;;;5135762;27;20172;-54
2022/01/23 15:13:14;;;;;;;36.58;23.40;;;7.20;99.90;;;;;;5135586;27;20243;-53
2022/01/23 15:15:40;;;;;;;35.55;21.23;;;7.10;99.90;;;;;;5135669;27;20197;-50
2022/01/23 15:18:06;;;;;;;38.40;21.23;;;7.00;99.90;;;;;;5135859;27;20168;-53
2022/01/23 15:20:33;;;;;;;36.95;19.65;;;7.00;99.90;;;;;;5135494;27;20203;-53
2022/01/23 15:22:59;;;;;;;33.88;20.80;;;7.00;99.90;;;;;;5135836;27;20293;-55
2022/01/23 15:25:26;;;;;;;37.35;20.63;;;7.00;99.90;;;;;;5135448;27;20160;-52
2022/01/23 15:27:52;;;;;;;39.00;20.80;;;7.00;99.90;;;;;;5135421;27;20534;-55
2022/01/23 15:30:21;;;;;;;47.17;22.25;;;7.00;99.90;;;;;;5135400;27;20189;-54
2022/01/23 15:32:46;;;;;;;41.92;24.42;;;7.00;99.90;;;;;;5135478;27;20164;-53
2022/01/23 15:35:14;;;;;;;36.28;20.35;;;7.00;99.90;;;;;;5135109;27;20748;-56
2022/01/23 15:37:40;;;;;;;33.13;20.25;;;7.00;99.90;;;;;;5135299;27;20193;-55
2022/01/23 15:40:10;;;;;;;33.15;20.73;;;7.00;99.90;;;;;;5135336;27;20539;-56
2022/01/23 15:42:36;;;;;;;38.65;22.10;;;7.00;99.90;;;;;;5135397;27;20163;-56
2022/01/23 15:45:02;;;;;;;40.67;21.23;;;7.00;99.90;;;;;;5135220;27;20168;-54
2022/01/23 15:47:27;;;;;;;34.60;20.50;;;7.00;99.90;;;;;;5135396;27;20654;-49
2022/01/23 15:49:53;;;;;;;34.92;20.92;;;6.90;99.90;;;;;;5134703;27;20186;-52
2022/01/23 15:52:18;;;;;;;40.13;21.35;;;6.90;99.90;;;;;;5134995;27;20164;-49
2022/01/23 15:54:45;;;;;;;31.60;19.55;;;6.90;99.90;;;;;;5134875;27;20164;-49
2022/01/23 15:57:11;;;;;;;35.50;21.95;;;6.90;99.90;;;;;;5135146;27;20645;-50
2022/01/23 15:59:37;;;;;;;34.92;19.33;;;6.90;99.90;;;;;;5134528;27;20631;-49
2022/01/23 16:02:05;;;;;;;36.13;21.10;;;6.80;99.90;;;;;;5134828;27;20714;-51
2022/01/23 16:04:34;;;;;;;33.45;20.58;;;6.80;99.90;;;;;;5134524;27;20631;-51
2022/01/23 16:06:59;;;;;;;36.53;20.00;;;6.80;99.90;;;;;;5134646;27;20235;-49